Milwaukee, WI (53207)

4:41 PM CST op 01 februari 2015 (GMT -0600)
Bay View | Change Station
CLOSE
Current Station
Persoonlijk weerstation
Location: Milwaukee, WI
Geometrische hoogte: 643 ft
Nabije weerstations
Actief advies: Winter Storm Warning Actieve aankondiging: Local Storm Report

Hoogte 643 ft 42.99 °N, 87.89 °W | Updated 6 minutes ago

Snow
Sneeuw
21.0 °F
Voelt als 13 °F
N
6.3
Wind Variabel Wind van ZW

Vandaag
Hoog -- | Laag -- °F
--% Kans op neerslag
Gisteren
Hoog -- | Laag -- °F
Precip. -- inches
7:06 AM 5:04 PM
Wassende maan, 96% visible
Druk 29.92 inches
Zicht 0.1 mijlen
Wolken
Gevoelstemperatuur 13 °F
Dauwpunt 21 °F
Vochtigheid 99%
Neerslag 0.00 inches
Dikte sneeuw Niet beschikbaar.
UV Niet beschikbaar.
Pollen .10 van de 12
Luchtkwaliteit Niet beschikbaar.
Flu Activity Niet beschikbaar.
METAR KMKE 012152Z 04024G34KT 1/8SM R01L/1600V2600FT SN BLSN VV011 M06/M08 A2988 RMK AO2 PK WND 03034/2151 TWR VIS 1/2 SLP130 P0002 T10611083

More Conditions Fewer Conditions

Druk 29.92 inches
Zicht 0.1 mijlen
Wolken
Gevoelstemperatuur 13 °F
Dauwpunt 21 °F
Vochtigheid 99%
Neerslag 0.00 inches
Dikte sneeuw Niet beschikbaar.
UV Niet beschikbaar.
Pollen .10 van de 12
Luchtkwaliteit Niet beschikbaar.
Flu Activity Niet beschikbaar.
METAR KMKE 012152Z 04024G34KT 1/8SM R01L/1600V2600FT SN BLSN VV011 M06/M08 A2988 RMK AO2 PK WND 03034/2151 TWR VIS 1/2 SLP130 P0002 T10611083

More Conditions Fewer Conditions

10-Day Weather Forecast

Almanac

Astronomie

Feb. 01, 2015 Opkomst Ondergang
Werkelijke tijd
Burgerlijke schemering
Nautische schemering
Astronomische schemering
Maan
Golflengte van het zichtbare licht
Daglengte
Tomorrow will be .
, % of the Moon is Illuminated

Extremen vandaag

State Highs State Lows

Community

WunderPhotos

Upload Photos

1,792,581 foto’s ge-upload!

WunderBlogs® & News

Nearby

Luchtkwaliteit

  Luchtkwaliteit LK-index Verontreinigende stof
Not available.

Dikte sneeuw

Station Depth Geometrische hoogte

Aardbevingen

Stad Distance Mag. Time & Date
Minimum magnitude displayed is 2.5.

Watertemperatuur langs de kust

Plaats Temperatuur

Nabije weerstations